sensor_id;sensor_type;location;lat;lon;timestamp;P1;durP1;ratioP1;P2;durP2;ratioP2
7306;SDS011;3694;48.732;9.248;2023-04-01T00:00:16;2.97;;;1.23;;
7306;SDS011;3694;48.732;9.248;2023-04-01T00:02:42;2.67;;;0.93;;
7306;SDS011;3694;48.732;9.248;2023-04-01T00:05:07;2.10;;;0.80;;
7306;SDS011;3694;48.732;9.248;2023-04-01T00:07:35;3.37;;;1.20;;
7306;SDS011;3694;48.732;9.248;2023-04-01T00:10:02;1.83;;;1.20;;
7306;SDS011;3694;48.732;9.248;2023-04-01T00:12:29;4.70;;;1.57;;
7306;SDS011;3694;48.732;9.248;2023-04-01T00:14:55;2.37;;;0.97;;
7306;SDS011;3694;48.732;9.248;2023-04-01T00:17:20;2.73;;;0.83;;
7306;SDS011;3694;48.732;9.248;2023-04-01T00:19:46;4.00;;;1.10;;
7306;SDS011;3694;48.732;9.248;2023-04-01T00:22:12;1.73;;;0.70;;
7306;SDS011;3694;48.732;9.248;2023-04-01T00:24:38;4.17;;;0.87;;
7306;SDS011;3694;48.732;9.248;2023-04-01T00:27:03;2.67;;;0.93;;
7306;SDS011;3694;48.732;9.248;2023-04-01T00:29:29;2.80;;;1.10;;
7306;SDS011;3694;48.732;9.248;2023-04-01T00:31:56;2.17;;;0.80;;
7306;SDS011;3694;48.732;9.248;2023-04-01T00:34:22;3.83;;;1.10;;
7306;SDS011;3694;48.732;9.248;2023-04-01T00:36:48;3.30;;;0.90;;
7306;SDS011;3694;48.732;9.248;2023-04-01T00:39:15;2.87;;;1.07;;
7306;SDS011;3694;48.732;9.248;2023-04-01T00:41:41;3.37;;;0.77;;
7306;SDS011;3694;48.732;9.248;2023-04-01T00:44:20;2.40;;;0.90;;
7306;SDS011;3694;48.732;9.248;2023-04-01T00:46:48;4.13;;;0.90;;
7306;SDS011;3694;48.732;9.248;2023-04-01T00:49:15;3.00;;;0.97;;
7306;SDS011;3694;48.732;9.248;2023-04-01T00:51:44;2.63;;;0.90;;
7306;SDS011;3694;48.732;9.248;2023-04-01T00:54:12;2.70;;;1.00;;
7306;SDS011;3694;48.732;9.248;2023-04-01T00:56:41;2.23;;;0.80;;
7306;SDS011;3694;48.732;9.248;2023-04-01T00:59:14;1.97;;;1.00;;
7306;SDS011;3694;48.732;9.248;2023-04-01T01:01:43;1.80;;;0.70;;
7306;SDS011;3694;48.732;9.248;2023-04-01T01:04:25;4.43;;;1.13;;
7306;SDS011;3694;48.732;9.248;2023-04-01T01:07:03;2.43;;;1.20;;
7306;SDS011;3694;48.732;9.248;2023-04-01T01:09:55;2.37;;;0.67;;
7306;SDS011;3694;48.732;9.248;2023-04-01T01:12:35;4.50;;;0.90;;
7306;SDS011;3694;48.732;9.248;2023-04-01T01:15:30;1.40;;;0.83;;
7306;SDS011;3694;48.732;9.248;2023-04-01T01:18:01;2.20;;;0.80;;
7306;SDS011;3694;48.732;9.248;2023-04-01T01:20:45;2.57;;;0.73;;
7306;SDS011;3694;48.732;9.248;2023-04-01T01:23:44;3.20;;;0.90;;
7306;SDS011;3694;48.732;9.248;2023-04-01T01:26:50;1.37;;;0.70;;
7306;SDS011;3694;48.732;9.248;2023-04-01T01:32:49;3.70;;;0.93;;
7306;SDS011;3694;48.732;9.248;2023-04-01T01:35:48;1.83;;;0.70;;
7306;SDS011;3694;48.732;9.248;2023-04-01T01:38:17;3.27;;;0.80;;
7306;SDS011;3694;48.732;9.248;2023-04-01T01:40:47;1.63;;;0.70;;
7306;SDS011;3694;48.732;9.248;2023-04-01T01:43:19;0.93;;;0.63;;
7306;SDS011;3694;48.732;9.248;2023-04-01T01:45:50;3.60;;;0.63;;
7306;SDS011;3694;48.732;9.248;2023-04-01T01:48:19;1.70;;;1.00;;
7306;SDS011;3694;48.732;9.248;2023-04-01T01:50:46;3.33;;;0.70;;
7306;SDS011;3694;48.732;9.248;2023-04-01T01:53:13;2.43;;;0.63;;
7306;SDS011;3694;48.732;9.248;2023-04-01T01:55:40;2.20;;;0.83;;
7306;SDS011;3694;48.732;9.248;2023-04-01T01:58:24;2.27;;;0.77;;
7306;SDS011;3694;48.732;9.248;2023-04-01T02:01:01;1.23;;;0.67;;
7306;SDS011;3694;48.732;9.248;2023-04-01T02:03:30;3.00;;;1.00;;
7306;SDS011;3694;48.732;9.248;2023-04-01T02:06:01;1.77;;;0.70;;
7306;SDS011;3694;48.732;9.248;2023-04-01T02:08:33;0.50;;;0.50;;
7306;SDS011;3694;48.732;9.248;2023-04-01T02:11:02;2.17;;;0.70;;
7306;SDS011;3694;48.732;9.248;2023-04-01T02:16:16;2.80;;;0.90;;
7306;SDS011;3694;48.732;9.248;2023-04-01T02:18:52;2.60;;;0.70;;
7306;SDS011;3694;48.732;9.248;2023-04-01T02:21:20;1.37;;;0.50;;
7306;SDS011;3694;48.732;9.248;2023-04-01T02:23:49;0.90;;;0.50;;
7306;SDS011;3694;48.732;9.248;2023-04-01T02:26:17;2.17;;;0.60;;
7306;SDS011;3694;48.732;9.248;2023-04-01T02:28:45;0.33;;;0.30;;
7306;SDS011;3694;48.732;9.248;2023-04-01T02:31:13;0.50;;;0.40;;
7306;SDS011;3694;48.732;9.248;2023-04-01T02:33:40;1.73;;;0.40;;
7306;SDS011;3694;48.732;9.248;2023-04-01T02:36:07;1.83;;;0.43;;
7306;SDS011;3694;48.732;9.248;2023-04-01T02:38:37;1.53;;;0.77;;
7306;SDS011;3694;48.732;9.248;2023-04-01T02:41:03;0.53;;;0.20;;
7306;SDS011;3694;48.732;9.248;2023-04-01T02:43:30;0.63;;;0.50;;
7306;SDS011;3694;48.732;9.248;2023-04-01T02:45:55;0.77;;;0.57;;
7306;SDS011;3694;48.732;9.248;2023-04-01T02:48:21;0.97;;;0.30;;
7306;SDS011;3694;48.732;9.248;2023-04-01T02:50:46;1.00;;;0.40;;
7306;SDS011;3694;48.732;9.248;2023-04-01T02:53:12;0.80;;;0.40;;
7306;SDS011;3694;48.732;9.248;2023-04-01T02:55:38;0.80;;;0.50;;
7306;SDS011;3694;48.732;9.248;2023-04-01T02:58:03;1.10;;;0.40;;
7306;SDS011;3694;48.732;9.248;2023-04-01T03:00:29;0.53;;;0.30;;
7306;SDS011;3694;48.732;9.248;2023-04-01T03:02:55;0.93;;;0.40;;
7306;SDS011;3694;48.732;9.248;2023-04-01T03:05:21;1.70;;;0.50;;
7306;SDS011;3694;48.732;9.248;2023-04-01T03:07:47;1.40;;;0.47;;
7306;SDS011;3694;48.732;9.248;2023-04-01T03:10:13;0.30;;;0.30;;
7306;SDS011;3694;48.732;9.248;2023-04-01T03:12:38;0.97;;;0.40;;
7306;SDS011;3694;48.732;9.248;2023-04-01T03:15:04;0.80;;;0.50;;
7306;SDS011;3694;48.732;9.248;2023-04-01T03:17:30;2.33;;;0.50;;
7306;SDS011;3694;48.732;9.248;2023-04-01T03:19:56;1.27;;;0.40;;
7306;SDS011;3694;48.732;9.248;2023-04-01T03:22:21;2.53;;;0.60;;
7306;SDS011;3694;48.732;9.248;2023-04-01T03:24:48;0.93;;;0.30;;
7306;SDS011;3694;48.732;9.248;2023-04-01T03:27:13;2.23;;;0.63;;
7306;SDS011;3694;48.732;9.248;2023-04-01T03:29:39;0.67;;;0.43;;
7306;SDS011;3694;48.732;9.248;2023-04-01T03:32:05;2.00;;;0.50;;
7306;SDS011;3694;48.732;9.248;2023-04-01T03:34:30;0.93;;;0.30;;
7306;SDS011;3694;48.732;9.248;2023-04-01T03:36:56;0.77;;;0.30;;
7306;SDS011;3694;48.732;9.248;2023-04-01T03:39:22;1.80;;;0.50;;
7306;SDS011;3694;48.732;9.248;2023-04-01T03:41:48;0.87;;;0.30;;
7306;SDS011;3694;48.732;9.248;2023-04-01T03:44:14;0.57;;;0.40;;
7306;SDS011;3694;48.732;9.248;2023-04-01T03:46:39;1.07;;;0.47;;
7306;SDS011;3694;48.732;9.248;2023-04-01T03:49:09;0.40;;;0.30;;
7306;SDS011;3694;48.732;9.248;2023-04-01T03:51:38;0.50;;;0.20;;
7306;SDS011;3694;48.732;9.248;2023-04-01T03:54:05;1.90;;;0.53;;
7306;SDS011;3694;48.732;9.248;2023-04-01T03:56:30;2.13;;;0.60;;
7306;SDS011;3694;48.732;9.248;2023-04-01T03:58:56;0.30;;;0.30;;
7306;SDS011;3694;48.732;9.248;2023-04-01T04:01:22;1.37;;;0.40;;
7306;SDS011;3694;48.732;9.248;2023-04-01T04:03:48;1.30;;;0.93;;
7306;SDS011;3694;48.732;9.248;2023-04-01T04:06:15;0.30;;;0.30;;
7306;SDS011;3694;48.732;9.248;2023-04-01T04:08:42;0.87;;;0.33;;
7306;SDS011;3694;48.732;9.248;2023-04-01T04:11:07;0.87;;;0.60;;
7306;SDS011;3694;48.732;9.248;2023-04-01T04:13:33;0.27;;;0.27;;
7306;SDS011;3694;48.732;9.248;2023-04-01T04:15:59;1.30;;;0.30;;
7306;SDS011;3694;48.732;9.248;2023-04-01T04:18:24;1.13;;;0.40;;
7306;SDS011;3694;48.732;9.248;2023-04-01T04:20:50;1.07;;;0.40;;
7306;SDS011;3694;48.732;9.248;2023-04-01T04:23:16;0.30;;;0.30;;
7306;SDS011;3694;48.732;9.248;2023-04-01T04:25:55;1.60;;;0.53;;
7306;SDS011;3694;48.732;9.248;2023-04-01T04:28:25;0.30;;;0.30;;
7306;SDS011;3694;48.732;9.248;2023-04-01T04:30:52;3.03;;;0.40;;
7306;SDS011;3694;48.732;9.248;2023-04-01T04:33:18;1.07;;;0.40;;
7306;SDS011;3694;48.732;9.248;2023-04-01T04:35:44;0.93;;;0.70;;
7306;SDS011;3694;48.732;9.248;2023-04-01T04:38:09;0.63;;;0.60;;
7306;SDS011;3694;48.732;9.248;2023-04-01T04:40:38;1.77;;;0.50;;
7306;SDS011;3694;48.732;9.248;2023-04-01T04:43:05;0.73;;;0.40;;
7306;SDS011;3694;48.732;9.248;2023-04-01T04:45:31;0.50;;;0.40;;
7306;SDS011;3694;48.732;9.248;2023-04-01T04:47:57;0.37;;;0.30;;
7306;SDS011;3694;48.732;9.248;2023-04-01T04:50:23;1.03;;;0.53;;
7306;SDS011;3694;48.732;9.248;2023-04-01T04:52:49;2.13;;;0.80;;
7306;SDS011;3694;48.732;9.248;2023-04-01T04:55:15;1.47;;;0.60;;
7306;SDS011;3694;48.732;9.248;2023-04-01T04:57:41;0.97;;;0.50;;
7306;SDS011;3694;48.732;9.248;2023-04-01T05:00:06;1.47;;;0.40;;
7306;SDS011;3694;48.732;9.248;2023-04-01T05:02:33;1.43;;;0.63;;
7306;SDS011;3694;48.732;9.248;2023-04-01T05:04:59;0.80;;;0.37;;
7306;SDS011;3694;48.732;9.248;2023-04-01T05:07:24;2.60;;;0.40;;
7306;SDS011;3694;48.732;9.248;2023-04-01T05:09:50;2.33;;;0.60;;
7306;SDS011;3694;48.732;9.248;2023-04-01T05:12:16;1.63;;;0.60;;
7306;SDS011;3694;48.732;9.248;2023-04-01T05:14:41;2.10;;;1.00;;
7306;SDS011;3694;48.732;9.248;2023-04-01T05:17:10;3.10;;;0.70;;
7306;SDS011;3694;48.732;9.248;2023-04-01T05:19:37;1.80;;;0.60;;
7306;SDS011;3694;48.732;9.248;2023-04-01T05:22:03;2.20;;;0.90;;
7306;SDS011;3694;48.732;9.248;2023-04-01T05:24:29;1.77;;;0.70;;
7306;SDS011;3694;48.732;9.248;2023-04-01T05:26:55;3.70;;;0.77;;
7306;SDS011;3694;48.732;9.248;2023-04-01T05:29:21;2.27;;;0.93;;
7306;SDS011;3694;48.732;9.248;2023-04-01T05:31:46;1.70;;;0.93;;
7306;SDS011;3694;48.732;9.248;2023-04-01T05:34:12;4.20;;;0.90;;
7306;SDS011;3694;48.732;9.248;2023-04-01T05:36:38;1.17;;;0.53;;
7306;SDS011;3694;48.732;9.248;2023-04-01T05:39:03;0.80;;;0.50;;
7306;SDS011;3694;48.732;9.248;2023-04-01T05:41:29;1.67;;;0.70;;
7306;SDS011;3694;48.732;9.248;2023-04-01T05:43:55;2.30;;;0.70;;
7306;SDS011;3694;48.732;9.248;2023-04-01T05:46:20;1.97;;;0.60;;
7306;SDS011;3694;48.732;9.248;2023-04-01T05:48:46;1.77;;;0.50;;
7306;SDS011;3694;48.732;9.248;2023-04-01T05:51:15;1.13;;;0.60;;
7306;SDS011;3694;48.732;9.248;2023-04-01T05:53:41;1.93;;;0.60;;
7306;SDS011;3694;48.732;9.248;2023-04-01T05:56:07;1.13;;;0.47;;
7306;SDS011;3694;48.732;9.248;2023-04-01T05:58:34;1.80;;;0.57;;
7306;SDS011;3694;48.732;9.248;2023-04-01T06:01:01;1.83;;;0.70;;
7306;SDS011;3694;48.732;9.248;2023-04-01T06:03:28;1.20;;;0.57;;
7306;SDS011;3694;48.732;9.248;2023-04-01T06:05:54;1.33;;;0.70;;
7306;SDS011;3694;48.732;9.248;2023-04-01T06:08:19;2.67;;;0.90;;
7306;SDS011;3694;48.732;9.248;2023-04-01T06:10:50;1.03;;;0.63;;
7306;SDS011;3694;48.732;9.248;2023-04-01T06:16:26;1.70;;;0.60;;
7306;SDS011;3694;48.732;9.248;2023-04-01T06:24:05;0.93;;;0.50;;
7306;SDS011;3694;48.732;9.248;2023-04-01T06:30:16;2.10;;;0.70;;
7306;SDS011;3694;48.732;9.248;2023-04-01T06:32:22;0.80;;;0.50;;
7306;SDS011;3694;48.732;9.248;2023-04-01T06:40:56;0.43;;;0.40;;
7306;SDS011;3694;48.732;9.248;2023-04-01T06:43:52;1.77;;;0.60;;
7306;SDS011;3694;48.732;9.248;2023-04-01T06:52:22;3.13;;;0.80;;
7306;SDS011;3694;48.732;9.248;2023-04-01T06:55:15;0.57;;;0.47;;
7306;SDS011;3694;48.732;9.248;2023-04-01T06:57:52;1.60;;;0.70;;
7306;SDS011;3694;48.732;9.248;2023-04-01T07:03:10;0.70;;;0.50;;
7306;SDS011;3694;48.732;9.248;2023-04-01T07:05:55;1.40;;;0.70;;
7306;SDS011;3694;48.732;9.248;2023-04-01T07:08:26;1.30;;;0.70;;
7306;SDS011;3694;48.732;9.248;2023-04-01T07:11:04;1.60;;;0.77;;
7306;SDS011;3694;48.732;9.248;2023-04-01T07:13:36;0.53;;;0.53;;
7306;SDS011;3694;48.732;9.248;2023-04-01T07:16:17;0.87;;;0.63;;
7306;SDS011;3694;48.732;9.248;2023-04-01T07:19:06;1.37;;;0.53;;
7306;SDS011;3694;48.732;9.248;2023-04-01T07:21:44;2.20;;;0.60;;
7306;SDS011;3694;48.732;9.248;2023-04-01T07:24:25;0.50;;;0.50;;
7306;SDS011;3694;48.732;9.248;2023-04-01T07:26:57;0.77;;;0.47;;
7306;SDS011;3694;48.732;9.248;2023-04-01T07:29:23;0.83;;;0.40;;
7306;SDS011;3694;48.732;9.248;2023-04-01T07:34:30;1.47;;;0.60;;
7306;SDS011;3694;48.732;9.248;2023-04-01T07:37:14;1.23;;;0.40;;
7306;SDS011;3694;48.732;9.248;2023-04-01T07:45:45;0.30;;;0.30;;
7306;SDS011;3694;48.732;9.248;2023-04-01T07:48:31;0.93;;;0.53;;
7306;SDS011;3694;48.732;9.248;2023-04-01T07:56:27;1.40;;;0.53;;
7306;SDS011;3694;48.732;9.248;2023-04-01T08:01:58;1.30;;;0.60;;
7306;SDS011;3694;48.732;9.248;2023-04-01T08:07:15;1.00;;;0.67;;
7306;SDS011;3694;48.732;9.248;2023-04-01T08:23:05;1.13;;;0.50;;
7306;SDS011;3694;48.732;9.248;2023-04-01T08:25:37;4.10;;;0.97;;
7306;SDS011;3694;48.732;9.248;2023-04-01T08:30:35;0.80;;;0.43;;
7306;SDS011;3694;48.732;9.248;2023-04-01T08:38:40;1.77;;;0.63;;
7306;SDS011;3694;48.732;9.248;2023-04-01T08:47:08;1.13;;;0.70;;
7306;SDS011;3694;48.732;9.248;2023-04-01T08:55:35;1.33;;;0.70;;
7306;SDS011;3694;48.732;9.248;2023-04-01T09:13:15;0.97;;;0.50;;
7306;SDS011;3694;48.732;9.248;2023-04-01T09:18:49;1.50;;;0.53;;
7306;SDS011;3694;48.732;9.248;2023-04-01T09:24:26;0.40;;;0.40;;
7306;SDS011;3694;48.732;9.248;2023-04-01T09:27:02;0.53;;;0.50;;
7306;SDS011;3694;48.732;9.248;2023-04-01T09:32:51;1.13;;;0.50;;
7306;SDS011;3694;48.732;9.248;2023-04-01T09:38:21;1.13;;;0.47;;
7306;SDS011;3694;48.732;9.248;2023-04-01T09:52:31;1.77;;;0.57;;
7306;SDS011;3694;48.732;9.248;2023-04-01T10:03:38;0.40;;;0.40;;
7306;SDS011;3694;48.732;9.248;2023-04-01T10:09:38;0.70;;;0.40;;
7306;SDS011;3694;48.732;9.248;2023-04-01T10:12:29;1.20;;;0.50;;
7306;SDS011;3694;48.732;9.248;2023-04-01T10:15:20;0.57;;;0.47;;
7306;SDS011;3694;48.732;9.248;2023-04-01T10:21:02;0.40;;;0.40;;
7306;SDS011;3694;48.732;9.248;2023-04-01T10:29:56;0.23;;;0.23;;
7306;SDS011;3694;48.732;9.248;2023-04-01T10:44:09;0.37;;;0.33;;
7306;SDS011;3694;48.732;9.248;2023-04-01T10:53:00;0.20;;;0.20;;
7306;SDS011;3694;48.732;9.248;2023-04-01T10:55:53;2.30;;;0.40;;
7306;SDS011;3694;48.732;9.248;2023-04-01T10:58:51;0.30;;;0.30;;
7306;SDS011;3694;48.732;9.248;2023-04-01T11:13:05;0.20;;;0.20;;
7306;SDS011;3694;48.732;9.248;2023-04-01T11:40:54;0.20;;;0.20;;
7306;SDS011;3694;48.732;9.248;2023-04-01T11:46:04;0.20;;;0.20;;
7306;SDS011;3694;48.732;9.248;2023-04-01T11:51:42;0.20;;;0.20;;
7306;SDS011;3694;48.732;9.248;2023-04-01T12:00:25;0.20;;;0.20;;
7306;SDS011;3694;48.732;9.248;2023-04-01T12:14:15;0.37;;;0.30;;
7306;SDS011;3694;48.732;9.248;2023-04-01T12:19:51;0.33;;;0.30;;
7306;SDS011;3694;48.732;9.248;2023-04-01T12:22:23;0.33;;;0.33;;
7306;SDS011;3694;48.732;9.248;2023-04-01T12:25:14;0.20;;;0.20;;
7306;SDS011;3694;48.732;9.248;2023-04-01T12:28:22;0.40;;;0.30;;
7306;SDS011;3694;48.732;9.248;2023-04-01T12:36:52;0.70;;;0.30;;
7306;SDS011;3694;48.732;9.248;2023-04-01T12:50:33;0.20;;;0.13;;
7306;SDS011;3694;48.732;9.248;2023-04-01T12:53:18;0.20;;;0.20;;
7306;SDS011;3694;48.732;9.248;2023-04-01T12:56:02;0.10;;;0.10;;
7306;SDS011;3694;48.732;9.248;2023-04-01T12:58:52;0.70;;;0.20;;
7306;SDS011;3694;48.732;9.248;2023-04-01T13:07:39;0.37;;;0.20;;
7306;SDS011;3694;48.732;9.248;2023-04-01T13:15:52;0.17;;;0.17;;
7306;SDS011;3694;48.732;9.248;2023-04-01T13:21:54;0.20;;;0.20;;
7306;SDS011;3694;48.732;9.248;2023-04-01T13:27:21;0.20;;;0.20;;
7306;SDS011;3694;48.732;9.248;2023-04-01T13:32:55;0.57;;;0.53;;
7306;SDS011;3694;48.732;9.248;2023-04-01T13:35:31;0.20;;;0.20;;
7306;SDS011;3694;48.732;9.248;2023-04-01T13:44:21;0.10;;;0.10;;
7306;SDS011;3694;48.732;9.248;2023-04-01T13:55:35;0.20;;;0.20;;
7306;SDS011;3694;48.732;9.248;2023-04-01T14:04:20;0.30;;;0.30;;
7306;SDS011;3694;48.732;9.248;2023-04-01T14:15:34;0.40;;;0.20;;
7306;SDS011;3694;48.732;9.248;2023-04-01T14:21:41;0.40;;;0.30;;
7306;SDS011;3694;48.732;9.248;2023-04-01T14:24:18;0.20;;;0.20;;
7306;SDS011;3694;48.732;9.248;2023-04-01T14:27:08;0.93;;;0.87;;
7306;SDS011;3694;48.732;9.248;2023-04-01T14:37:49;0.20;;;0.20;;
7306;SDS011;3694;48.732;9.248;2023-04-01T14:48:58;0.20;;;0.20;;
7306;SDS011;3694;48.732;9.248;2023-04-01T14:51:53;0.37;;;0.37;;
7306;SDS011;3694;48.732;9.248;2023-04-01T14:54:21;1.50;;;0.30;;
7306;SDS011;3694;48.732;9.248;2023-04-01T14:59:48;0.30;;;0.30;;
7306;SDS011;3694;48.732;9.248;2023-04-01T15:05:15;0.20;;;0.20;;
7306;SDS011;3694;48.732;9.248;2023-04-01T15:13:52;0.20;;;0.20;;
7306;SDS011;3694;48.732;9.248;2023-04-01T15:16:53;0.20;;;0.20;;
7306;SDS011;3694;48.732;9.248;2023-04-01T15:19:36;0.20;;;0.20;;
7306;SDS011;3694;48.732;9.248;2023-04-01T15:25:21;0.20;;;0.20;;
7306;SDS011;3694;48.732;9.248;2023-04-01T15:30:54;0.27;;;0.20;;
7306;SDS011;3694;48.732;9.248;2023-04-01T15:49:57;2.57;;;2.37;;
7306;SDS011;3694;48.732;9.248;2023-04-01T15:55:20;0.50;;;0.50;;
7306;SDS011;3694;48.732;9.248;2023-04-01T15:58:06;0.53;;;0.23;;
7306;SDS011;3694;48.732;9.248;2023-04-01T16:06:43;2.40;;;1.70;;
7306;SDS011;3694;48.732;9.248;2023-04-01T16:11:51;0.87;;;0.43;;
7306;SDS011;3694;48.732;9.248;2023-04-01T16:19:52;0.40;;;0.40;;
7306;SDS011;3694;48.732;9.248;2023-04-01T16:22:40;1.00;;;0.40;;
7306;SDS011;3694;48.732;9.248;2023-04-01T16:25:26;1.13;;;0.60;;
7306;SDS011;3694;48.732;9.248;2023-04-01T16:33:37;1.17;;;0.50;;
7306;SDS011;3694;48.732;9.248;2023-04-01T16:36:10;0.30;;;0.30;;
7306;SDS011;3694;48.732;9.248;2023-04-01T16:41:37;0.33;;;0.20;;
7306;SDS011;3694;48.732;9.248;2023-04-01T16:44:17;0.70;;;0.63;;
7306;SDS011;3694;48.732;9.248;2023-04-01T16:46:45;1.17;;;0.50;;
7306;SDS011;3694;48.732;9.248;2023-04-01T16:49:17;1.30;;;1.20;;
7306;SDS011;3694;48.732;9.248;2023-04-01T16:54:51;1.13;;;1.00;;
7306;SDS011;3694;48.732;9.248;2023-04-01T17:00:19;2.67;;;0.93;;
7306;SDS011;3694;48.732;9.248;2023-04-01T17:02:58;4.23;;;3.10;;
7306;SDS011;3694;48.732;9.248;2023-04-01T17:06:01;5.57;;;3.70;;
7306;SDS011;3694;48.732;9.248;2023-04-01T17:08:30;9.03;;;4.93;;
7306;SDS011;3694;48.732;9.248;2023-04-01T17:11:14;2.80;;;2.00;;
7306;SDS011;3694;48.732;9.248;2023-04-01T17:13:46;3.97;;;2.50;;
7306;SDS011;3694;48.732;9.248;2023-04-01T17:16:28;2.23;;;1.20;;
7306;SDS011;3694;48.732;9.248;2023-04-01T17:22:07;1.37;;;1.00;;
7306;SDS011;3694;48.732;9.248;2023-04-01T17:35:56;3.67;;;2.43;;
7306;SDS011;3694;48.732;9.248;2023-04-01T17:41:51;2.87;;;1.63;;
7306;SDS011;3694;48.732;9.248;2023-04-01T17:44:43;2.30;;;1.43;;
7306;SDS011;3694;48.732;9.248;2023-04-01T17:50:19;2.10;;;1.53;;
7306;SDS011;3694;48.732;9.248;2023-04-01T17:53:02;1.00;;;0.80;;
7306;SDS011;3694;48.732;9.248;2023-04-01T17:55:43;1.13;;;1.00;;
7306;SDS011;3694;48.732;9.248;2023-04-01T17:58:22;1.93;;;0.93;;
7306;SDS011;3694;48.732;9.248;2023-04-01T18:09:16;1.50;;;1.40;;
7306;SDS011;3694;48.732;9.248;2023-04-01T18:12:40;7.53;;;4.83;;
7306;SDS011;3694;48.732;9.248;2023-04-01T18:21:27;3.67;;;2.70;;
7306;SDS011;3694;48.732;9.248;2023-04-01T18:24:16;5.07;;;4.47;;
7306;SDS011;3694;48.732;9.248;2023-04-01T18:26:49;2.40;;;2.17;;
7306;SDS011;3694;48.732;9.248;2023-04-01T18:32:17;4.50;;;4.03;;
7306;SDS011;3694;48.732;9.248;2023-04-01T18:35:15;1.27;;;1.10;;
7306;SDS011;3694;48.732;9.248;2023-04-01T18:37:47;1.97;;;1.20;;
7306;SDS011;3694;48.732;9.248;2023-04-01T18:45:47;1.30;;;1.17;;
7306;SDS011;3694;48.732;9.248;2023-04-01T18:57:12;0.40;;;0.40;;
7306;SDS011;3694;48.732;9.248;2023-04-01T18:59:40;0.63;;;0.60;;
7306;SDS011;3694;48.732;9.248;2023-04-01T19:02:14;1.73;;;0.87;;
7306;SDS011;3694;48.732;9.248;2023-04-01T19:04:47;0.80;;;0.73;;
7306;SDS011;3694;48.732;9.248;2023-04-01T19:10:23;0.80;;;0.80;;
7306;SDS011;3694;48.732;9.248;2023-04-01T19:15:49;2.00;;;0.67;;
7306;SDS011;3694;48.732;9.248;2023-04-01T19:18:32;0.73;;;0.73;;
7306;SDS011;3694;48.732;9.248;2023-04-01T19:24:21;0.77;;;0.60;;
7306;SDS011;3694;48.732;9.248;2023-04-01T19:27:10;1.50;;;0.90;;
7306;SDS011;3694;48.732;9.248;2023-04-01T19:35:38;2.40;;;0.70;;
7306;SDS011;3694;48.732;9.248;2023-04-01T19:38:24;1.03;;;0.90;;
7306;SDS011;3694;48.732;9.248;2023-04-01T19:44:22;1.13;;;0.83;;
7306;SDS011;3694;48.732;9.248;2023-04-01T19:50:15;0.77;;;0.77;;
7306;SDS011;3694;48.732;9.248;2023-04-01T19:52:55;2.40;;;0.73;;
7306;SDS011;3694;48.732;9.248;2023-04-01T19:58:17;0.87;;;0.70;;
7306;SDS011;3694;48.732;9.248;2023-04-01T20:00:58;1.03;;;0.90;;
7306;SDS011;3694;48.732;9.248;2023-04-01T20:14:51;1.03;;;0.60;;
7306;SDS011;3694;48.732;9.248;2023-04-01T20:17:23;0.63;;;0.60;;
7306;SDS011;3694;48.732;9.248;2023-04-01T20:19:59;0.40;;;0.40;;
7306;SDS011;3694;48.732;9.248;2023-04-01T20:25:32;1.50;;;1.00;;
7306;SDS011;3694;48.732;9.248;2023-04-01T20:28:11;1.60;;;1.10;;
7306;SDS011;3694;48.732;9.248;2023-04-01T20:33:53;1.10;;;0.97;;
7306;SDS011;3694;48.732;9.248;2023-04-01T20:39:34;1.93;;;1.27;;
7306;SDS011;3694;48.732;9.248;2023-04-01T20:43:07;1.20;;;1.00;;
7306;SDS011;3694;48.732;9.248;2023-04-01T20:45:13;0.90;;;0.90;;
7306;SDS011;3694;48.732;9.248;2023-04-01T20:50:24;1.43;;;0.90;;
7306;SDS011;3694;48.732;9.248;2023-04-01T20:55:58;1.20;;;0.93;;
7306;SDS011;3694;48.732;9.248;2023-04-01T21:01:25;1.77;;;1.00;;
7306;SDS011;3694;48.732;9.248;2023-04-01T21:04:10;1.03;;;1.00;;
7306;SDS011;3694;48.732;9.248;2023-04-01T21:15:19;0.80;;;0.73;;
7306;SDS011;3694;48.732;9.248;2023-04-01T21:18:03;1.53;;;0.87;;
7306;SDS011;3694;48.732;9.248;2023-04-01T21:24:02;2.30;;;0.97;;
7306;SDS011;3694;48.732;9.248;2023-04-01T21:29:33;0.80;;;0.80;;
7306;SDS011;3694;48.732;9.248;2023-04-01T21:32:19;1.37;;;1.27;;
7306;SDS011;3694;48.732;9.248;2023-04-01T22:05:12;1.37;;;1.27;;
7306;SDS011;3694;48.732;9.248;2023-04-01T22:07:49;1.47;;;1.30;;
7306;SDS011;3694;48.732;9.248;2023-04-01T22:10:22;1.73;;;1.57;;
7306;SDS011;3694;48.732;9.248;2023-04-01T22:13:26;2.53;;;1.13;;
7306;SDS011;3694;48.732;9.248;2023-04-01T22:18:49;1.63;;;1.40;;
7306;SDS011;3694;48.732;9.248;2023-04-01T22:24:34;0.70;;;0.70;;
7306;SDS011;3694;48.732;9.248;2023-04-01T22:27:07;2.27;;;1.50;;
7306;SDS011;3694;48.732;9.248;2023-04-01T22:32:52;1.47;;;0.90;;
7306;SDS011;3694;48.732;9.248;2023-04-01T22:35:35;3.07;;;1.90;;
7306;SDS011;3694;48.732;9.248;2023-04-01T22:38:18;0.63;;;0.63;;
7306;SDS011;3694;48.732;9.248;2023-04-01T22:41:08;0.60;;;0.60;;
7306;SDS011;3694;48.732;9.248;2023-04-01T22:43:45;0.90;;;0.80;;
7306;SDS011;3694;48.732;9.248;2023-04-01T22:54:56;1.40;;;1.13;;
7306;SDS011;3694;48.732;9.248;2023-04-01T22:57:51;2.33;;;1.27;;
7306;SDS011;3694;48.732;9.248;2023-04-01T23:00:42;1.03;;;0.70;;
7306;SDS011;3694;48.732;9.248;2023-04-01T23:03:17;0.90;;;0.70;;
7306;SDS011;3694;48.732;9.248;2023-04-01T23:05:56;1.00;;;0.90;;
7306;SDS011;3694;48.732;9.248;2023-04-01T23:08:38;1.27;;;1.00;;
7306;SDS011;3694;48.732;9.248;2023-04-01T23:16:47;4.50;;;2.47;;
7306;SDS011;3694;48.732;9.248;2023-04-01T23:19:25;3.00;;;1.53;;
7306;SDS011;3694;48.732;9.248;2023-04-01T23:22:08;1.13;;;0.87;;
7306;SDS011;3694;48.732;9.248;2023-04-01T23:24:53;2.20;;;1.07;;
7306;SDS011;3694;48.732;9.248;2023-04-01T23:27:43;1.53;;;0.67;;
7306;SDS011;3694;48.732;9.248;2023-04-01T23:33:10;1.03;;;0.80;;
7306;SDS011;3694;48.732;9.248;2023-04-01T23:38:37;1.20;;;0.70;;
7306;SDS011;3694;48.732;9.248;2023-04-01T23:41:06;0.60;;;0.60;;
7306;SDS011;3694;48.732;9.248;2023-04-01T23:43:42;0.40;;;0.40;;
7306;SDS011;3694;48.732;9.248;2023-04-01T23:46:08;1.23;;;0.63;;
7306;SDS011;3694;48.732;9.248;2023-04-01T23:48:38;0.73;;;0.50;;
7306;SDS011;3694;48.732;9.248;2023-04-01T23:51:48;1.27;;;0.60;;
7306;SDS011;3694;48.732;9.248;2023-04-01T23:54:47;1.43;;;0.57;;
7306;SDS011;3694;48.732;9.248;2023-04-01T23:56:48;0.70;;;0.50;;
7306;SDS011;3694;48.732;9.248;2023-04-01T23:59:17;0.70;;;0.50;;
